Time;durP1;ratioP1;P1;durP2;ratioP2;P2;SDS_P1;SDS_P2;PMS_P1;PMS_P2;Temp;Humidity;BMP_temperature;BMP_pressure;BME280_temperature;BME280_humidity;BME280_pressure;Samples;Min_cycle;Max_cycle;Signal;HPM_P1;HPM_P2
2021/01/17 00:00:35;;;;;;;33.05;19.25;;;-1.40;99.90;;;;;;4957259;29;20121;-84
2021/01/17 00:03:01;;;;;;;34.28;18.73;;;-1.30;99.90;;;;;;4956931;28;20031;-85
2021/01/17 00:05:28;;;;;;;33.35;18.63;;;-1.20;99.90;;;;;;4956407;28;20427;-86
2021/01/17 00:07:54;;;;;;;35.65;20.10;;;-1.00;99.90;;;;;;4957779;28;20031;-85
2021/01/17 00:10:23;;;;;;;32.38;18.08;;;-0.90;99.90;;;;;;4956821;28;20118;-85
2021/01/17 00:12:50;;;;;;;35.15;19.20;;;-0.80;99.90;;;;;;4956670;29;20495;-85
2021/01/17 00:15:17;;;;;;;33.40;18.73;;;-0.90;99.90;;;;;;4957897;28;20023;-85
2021/01/17 00:17:43;;;;;;;32.45;18.80;;;-0.70;99.90;;;;;;4957408;29;20110;-85
2021/01/17 00:20:11;;;;;;;27.90;17.27;;;-0.60;99.90;;;;;;4958185;28;20027;-86
2021/01/17 00:22:38;;;;;;;31.80;17.13;;;-0.80;99.90;;;;;;4958065;28;20039;-85
2021/01/17 00:25:05;;;;;;;31.30;17.58;;;-0.60;99.90;;;;;;4956861;29;20495;-85
2021/01/17 00:27:31;;;;;;;28.92;17.10;;;-0.60;99.90;;;;;;4957785;28;20034;-85
2021/01/17 00:29:57;;;;;;;28.98;16.88;;;-0.40;99.90;;;;;;4956582;29;20031;-85
2021/01/17 00:32:23;;;;;;;29.63;17.23;;;-0.50;99.90;;;;;;4957673;29;20077;-85
2021/01/17 00:34:48;;;;;;;29.33;16.67;;;-0.30;99.90;;;;;;4956520;29;20545;-85
2021/01/17 00:37:15;;;;;;;30.15;17.58;;;-0.30;99.90;;;;;;4956480;28;20480;-86
2021/01/17 00:39:41;;;;;;;31.52;17.58;;;-0.30;99.90;;;;;;4956351;29;20046;-84
2021/01/17 00:42:14;;;;;;;29.00;17.08;;;-0.80;99.90;;;;;;4956327;29;20027;-84
2021/01/17 00:44:44;;;;;;;31.08;17.95;;;-0.70;99.90;;;;;;4956179;29;20054;-84
2021/01/17 00:47:13;;;;;;;29.10;16.90;;;-0.80;99.90;;;;;;4957424;28;20035;-84
2021/01/17 00:49:39;;;;;;;29.95;17.38;;;-0.70;99.90;;;;;;4957426;28;20506;-84
2021/01/17 00:52:05;;;;;;;28.88;16.00;;;-0.60;99.90;;;;;;4956092;29;20031;-84
2021/01/17 00:54:31;;;;;;;28.08;15.52;;;-0.60;99.90;;;;;;4957364;28;20026;-84
2021/01/17 00:57:03;;;;;;;24.73;15.20;;;-0.50;99.90;;;;;;4956073;29;20480;-84
2021/01/17 00:59:28;;;;;;;26.38;15.38;;;-0.40;99.90;;;;;;4957615;28;20031;-85
2021/01/17 01:01:55;;;;;;;25.27;14.57;;;-0.30;99.90;;;;;;4955918;28;20038;-85
2021/01/17 01:04:20;;;;;;;26.85;14.85;;;-0.30;99.90;;;;;;4955848;28;20027;-84
2021/01/17 01:06:51;;;;;;;28.65;16.60;;;-0.50;99.90;;;;;;4955844;29;20438;-85
2021/01/17 01:09:18;;;;;;;26.35;15.35;;;-0.60;99.90;;;;;;4957118;28;20553;-85
2021/01/17 01:11:43;;;;;;;27.38;15.90;;;-0.70;99.90;;;;;;4955665;29;20031;-85
2021/01/17 01:14:09;;;;;;;28.52;15.85;;;-0.60;99.90;;;;;;4957232;29;20483;-85
2021/01/17 01:16:35;;;;;;;25.95;14.77;;;-0.90;99.90;;;;;;4955564;28;20426;-85
2021/01/17 01:19:02;;;;;;;24.30;14.20;;;-0.70;99.90;;;;;;4955238;29;20372;-85
2021/01/17 01:21:29;;;;;;;27.95;14.63;;;-0.70;99.90;;;;;;4956734;28;20027;-84
2021/01/17 01:23:55;;;;;;;29.58;15.50;;;-0.40;99.90;;;;;;4956621;28;20113;-85
2021/01/17 01:26:22;;;;;;;24.85;14.32;;;-0.30;99.90;;;;;;4956623;28;20019;-85
2021/01/17 01:28:55;;;;;;;23.25;14.50;;;-0.30;99.90;;;;;;4955300;29;20029;-85
2021/01/17 01:31:25;;;;;;;24.02;14.57;;;-0.40;99.90;;;;;;4955241;29;20026;-84
2021/01/17 01:33:52;;;;;;;23.33;14.07;;;-0.50;99.90;;;;;;4956500;28;20027;-85
2021/01/17 01:36:22;;;;;;;24.50;13.95;;;-0.30;99.90;;;;;;4956667;28;20042;-84
2021/01/17 01:38:48;;;;;;;25.83;13.57;;;-0.20;99.90;;;;;;4955267;29;20020;-84
2021/01/17 01:41:17;;;;;;;26.38;14.82;;;-0.20;99.90;;;;;;4956645;28;20080;-84
2021/01/17 01:43:43;;;;;;;23.05;13.82;;;-0.20;99.90;;;;;;4956121;28;20126;-84
2021/01/17 01:46:14;;;;;;;24.88;14.57;;;-0.10;99.90;;;;;;4956279;28;20035;-85
2021/01/17 01:48:40;;;;;;;25.02;14.43;;;0.00;99.90;;;;;;4956318;28;20446;-84
2021/01/17 01:51:06;;;;;;;22.83;14.15;;;0.00;99.90;;;;;;4956232;28;20471;-84
2021/01/17 01:53:32;;;;;;;24.77;14.20;;;0.00;99.90;;;;;;4956064;29;20075;-84
2021/01/17 01:55:59;;;;;;;22.58;13.32;;;-0.30;99.90;;;;;;4954846;29;20027;-84
2021/01/17 01:58:27;;;;;;;23.17;14.05;;;-0.40;99.90;;;;;;4956078;28;20032;-84
2021/01/17 02:00:53;;;;;;;23.45;13.95;;;-0.20;99.90;;;;;;4956301;28;20057;-84
2021/01/17 02:03:19;;;;;;;25.10;15.07;;;-0.30;99.90;;;;;;4954685;29;20094;-84
2021/01/17 02:05:44;;;;;;;24.55;13.60;;;-0.30;99.90;;;;;;4955958;28;20035;-84
2021/01/17 02:08:19;;;;;;;22.58;13.82;;;-0.10;99.90;;;;;;4954588;29;20069;-84
2021/01/17 02:10:45;;;;;;;28.52;14.98;;;-0.10;99.90;;;;;;4954641;29;20031;-84
2021/01/17 02:13:18;;;;;;;25.95;15.00;;;-0.20;99.90;;;;;;4954493;29;20031;-84
2021/01/17 02:15:47;;;;;;;26.93;15.40;;;-0.50;99.90;;;;;;4954643;29;20027;-85
2021/01/17 02:18:15;;;;;;;25.98;15.05;;;-0.50;99.90;;;;;;4956016;28;20265;-84
2021/01/17 02:20:42;;;;;;;27.27;14.45;;;-0.80;99.90;;;;;;4955747;28;20110;-84
2021/01/17 02:23:27;;;;;;;23.42;14.07;;;-0.70;99.90;;;;;;4954445;29;20027;-84
2021/01/17 02:25:54;;;;;;;28.25;15.18;;;-0.60;99.90;;;;;;4954445;29;20438;-84
2021/01/17 02:28:20;;;;;;;26.20;14.38;;;-0.50;99.90;;;;;;4955445;28;20046;-84
2021/01/17 02:30:55;;;;;;;25.10;14.75;;;-0.30;99.90;;;;;;4954113;29;20034;-84
2021/01/17 02:33:26;;;;;;;23.10;13.65;;;-0.30;99.90;;;;;;4956063;28;20038;-84
2021/01/17 02:35:57;;;;;;;26.48;14.98;;;-0.30;99.90;;;;;;4955723;28;20026;-84
2021/01/17 02:38:29;;;;;;;26.60;14.57;;;-0.20;99.90;;;;;;4955852;28;20027;-84
2021/01/17 02:41:23;;;;;;;26.10;15.43;;;-0.30;99.90;;;;;;4954251;29;20023;-84
2021/01/17 02:43:50;;;;;;;25.15;14.52;;;-0.50;99.90;;;;;;4954379;29;20578;-84
2021/01/17 02:46:15;;;;;;;25.25;15.60;;;-0.40;99.90;;;;;;4954191;29;20089;-84
2021/01/17 02:48:41;;;;;;;28.80;15.45;;;-0.50;99.90;;;;;;4954134;29;20106;-84
2021/01/17 02:51:07;;;;;;;22.92;14.07;;;-0.50;99.90;;;;;;4955416;29;20023;-84
2021/01/17 02:53:45;;;;;;;28.17;16.33;;;-0.50;99.90;;;;;;4955284;28;20102;-84
2021/01/17 02:56:21;;;;;;;26.85;15.45;;;-0.50;99.90;;;;;;4955673;28;20468;-84
2021/01/17 02:58:53;;;;;;;24.85;15.10;;;-0.30;99.90;;;;;;4954133;29;20534;-84
2021/01/17 03:01:21;;;;;;;25.15;15.75;;;-0.40;99.90;;;;;;4954054;29;20118;-84
2021/01/17 03:03:49;;;;;;;26.20;15.60;;;-0.40;99.90;;;;;;4953994;29;20023;-83
2021/01/17 03:06:15;;;;;;;28.20;15.65;;;-0.40;99.90;;;;;;4955558;28;20510;-84
2021/01/17 03:08:41;;;;;;;42.17;19.45;;;-0.40;99.90;;;;;;4953975;28;20418;-84
2021/01/17 03:11:07;;;;;;;32.35;17.65;;;-0.40;99.90;;;;;;4953943;29;20026;-84
2021/01/17 03:13:37;;;;;;;27.70;14.60;;;-0.50;99.90;;;;;;4955374;28;20118;-83
2021/01/17 03:16:07;;;;;;;28.90;16.85;;;-0.60;99.90;;;;;;4953893;29;20023;-83
2021/01/17 03:18:33;;;;;;;30.63;17.40;;;-0.50;99.90;;;;;;4955103;28;20369;-83
2021/01/17 03:20:59;;;;;;;28.02;16.00;;;-0.50;99.90;;;;;;4953902;29;20450;-83
2021/01/17 03:23:25;;;;;;;27.33;15.95;;;-0.40;99.90;;;;;;4953852;29;20031;-83
2021/01/17 03:25:51;;;;;;;28.95;16.83;;;-0.50;99.90;;;;;;4955079;29;20046;-83
2021/01/17 03:28:17;;;;;;;28.77;17.25;;;-0.80;99.90;;;;;;4953845;29;20031;-84
2021/01/17 03:30:42;;;;;;;25.38;15.38;;;-0.90;99.90;;;;;;4953819;29;20031;-83
2021/01/17 03:33:08;;;;;;;30.90;18.17;;;-0.80;99.90;;;;;;4955267;28;20102;-84
2021/01/17 03:35:34;;;;;;;26.27;14.73;;;-0.80;99.90;;;;;;4953709;29;20019;-83
2021/01/17 03:37:59;;;;;;;30.75;16.42;;;-0.60;99.90;;;;;;4953646;28;20027;-83
2021/01/17 03:40:26;;;;;;;29.63;16.55;;;-0.60;99.90;;;;;;4954465;28;20086;-83
2021/01/17 03:42:51;;;;;;;26.23;15.30;;;-0.40;99.90;;;;;;4957079;28;20046;-83
2021/01/17 03:45:17;;;;;;;28.15;15.90;;;-0.50;99.90;;;;;;4958809;29;20031;-83
2021/01/17 03:47:43;;;;;;;29.30;16.85;;;-0.40;99.90;;;;;;4957118;29;20031;-83
2021/01/17 03:50:09;;;;;;;28.13;15.73;;;-0.60;99.90;;;;;;4958435;29;20027;-84
2021/01/17 03:52:35;;;;;;;27.13;14.93;;;-0.50;99.90;;;;;;4956952;29;20121;-83
2021/01/17 03:55:01;;;;;;;26.15;15.43;;;-0.20;99.90;;;;;;4958272;29;20068;-84
2021/01/17 03:57:26;;;;;;;27.58;15.90;;;-0.20;99.90;;;;;;4957034;29;20026;-84
2021/01/17 03:59:52;;;;;;;26.75;14.95;;;-0.20;99.90;;;;;;4958199;29;20383;-84
2021/01/17 04:02:18;;;;;;;26.95;15.52;;;-0.20;99.90;;;;;;4958460;28;20534;-84
2021/01/17 04:04:43;;;;;;;28.50;15.65;;;-0.20;99.90;;;;;;4958122;29;20094;-84
2021/01/17 04:07:10;;;;;;;28.27;16.48;;;-0.20;99.90;;;;;;4958363;29;20038;-83
2021/01/17 04:09:35;;;;;;;30.20;17.27;;;-0.30;99.90;;;;;;4956812;29;20082;-83
2021/01/17 04:12:01;;;;;;;27.52;15.88;;;-0.40;99.90;;;;;;4956667;29;20486;-83
2021/01/17 04:14:27;;;;;;;26.20;14.88;;;-0.20;99.90;;;;;;4956721;29;20035;-84
2021/01/17 04:16:53;;;;;;;26.73;15.32;;;-0.10;99.90;;;;;;4956697;29;20030;-84
2021/01/17 04:19:19;;;;;;;29.05;16.35;;;-0.20;99.90;;;;;;4956607;29;20023;-84
2021/01/17 04:21:46;;;;;;;30.08;17.33;;;-0.20;99.90;;;;;;4956604;29;20027;-83
2021/01/17 04:24:12;;;;;;;30.65;17.23;;;-0.30;99.90;;;;;;4958018;28;20031;-83
2021/01/17 04:26:38;;;;;;;30.20;16.70;;;-0.30;99.90;;;;;;4957752;28;20059;-83
2021/01/17 04:29:04;;;;;;;30.17;17.45;;;-0.40;99.90;;;;;;4956449;29;20067;-83
2021/01/17 04:31:40;;;;;;;27.50;15.63;;;-0.60;99.90;;;;;;4957567;28;20031;-83
2021/01/17 04:34:06;;;;;;;29.00;16.65;;;-0.40;99.90;;;;;;4957886;28;20024;-83
2021/01/17 04:36:31;;;;;;;29.95;17.23;;;-0.40;99.90;;;;;;4957500;28;20027;-83
2021/01/17 04:38:57;;;;;;;27.02;15.93;;;-0.60;99.90;;;;;;4957491;29;20023;-83
2021/01/17 04:41:28;;;;;;;29.38;17.27;;;-0.40;99.90;;;;;;4956181;28;20114;-83
2021/01/17 04:43:59;;;;;;;30.13;17.88;;;-0.50;99.90;;;;;;4957309;28;20051;-83
2021/01/17 04:46:30;;;;;;;26.80;15.45;;;-0.60;99.90;;;;;;4957377;28;20038;-83
2021/01/17 04:49:01;;;;;;;29.25;17.25;;;-0.30;99.90;;;;;;4957333;28;20020;-83
2021/01/17 04:51:28;;;;;;;28.70;16.42;;;-0.50;99.90;;;;;;4955760;28;20431;-83
2021/01/17 04:53:57;;;;;;;29.08;17.33;;;-0.40;99.90;;;;;;4956784;28;20023;-83
2021/01/17 04:56:28;;;;;;;30.65;16.75;;;-0.60;99.90;;;;;;4955950;29;20020;-83
2021/01/17 04:59:13;;;;;;;30.83;17.67;;;-0.50;99.90;;;;;;4957154;28;20023;-83
2021/01/17 05:01:48;;;;;;;29.05;16.48;;;-0.60;99.90;;;;;;4955799;29;20078;-83
2021/01/17 05:04:43;;;;;;;28.33;15.98;;;-0.70;99.90;;;;;;4957031;29;20483;-83
2021/01/17 05:07:36;;;;;;;29.65;17.08;;;-0.60;99.90;;;;;;4955206;29;20134;-83
2021/01/17 05:10:04;;;;;;;25.40;14.88;;;-0.50;99.90;;;;;;4955207;29;20089;-83
2021/01/17 05:12:46;;;;;;;28.52;16.02;;;-0.50;99.90;;;;;;4956831;28;20027;-83
2021/01/17 05:15:11;;;;;;;26.17;15.43;;;-0.50;99.90;;;;;;4956906;28;20094;-83
2021/01/17 05:17:39;;;;;;;27.58;16.75;;;-0.40;99.90;;;;;;4955591;29;20119;-83
2021/01/17 05:20:06;;;;;;;28.52;16.65;;;-0.20;99.90;;;;;;4955548;29;20051;-83
2021/01/17 05:22:32;;;;;;;26.20;15.70;;;-0.20;99.90;;;;;;4955501;29;20431;-83
2021/01/17 05:24:58;;;;;;;27.65;16.23;;;-0.20;99.90;;;;;;4955473;29;20028;-83
2021/01/17 05:27:24;;;;;;;30.20;16.55;;;-0.20;99.90;;;;;;4956613;29;20030;-82
2021/01/17 05:29:50;;;;;;;28.42;16.55;;;-0.10;99.90;;;;;;4956590;29;20031;-82
2021/01/17 05:32:16;;;;;;;29.75;17.02;;;-0.10;99.90;;;;;;4955196;29;20027;-82
2021/01/17 05:34:42;;;;;;;28.95;16.45;;;-0.10;99.90;;;;;;4956494;28;20126;-82
2021/01/17 05:37:13;;;;;;;26.80;15.50;;;-0.40;99.90;;;;;;4955102;28;20038;-82
2021/01/17 05:40:03;;;;;;;24.55;15.50;;;-0.30;99.90;;;;;;4955224;29;20061;-82
2021/01/17 05:42:31;;;;;;;28.58;16.02;;;-0.20;99.90;;;;;;4954905;29;20036;-83
2021/01/17 05:45:09;;;;;;;28.67;15.73;;;-0.30;99.90;;;;;;4956383;28;20034;-83
2021/01/17 05:47:35;;;;;;;27.00;16.60;;;-0.40;99.90;;;;;;4955077;29;20043;-82
2021/01/17 05:50:09;;;;;;;26.67;15.98;;;-0.50;99.90;;;;;;4955033;29;20498;-83
2021/01/17 05:52:35;;;;;;;36.33;20.00;;;-0.50;99.90;;;;;;4956103;28;20034;-82
2021/01/17 05:55:02;;;;;;;34.22;17.25;;;-0.50;99.90;;;;;;4956100;29;20019;-82
2021/01/17 05:57:30;;;;;;;26.90;16.17;;;-0.50;99.90;;;;;;4956334;29;20043;-82
2021/01/17 05:59:56;;;;;;;30.65;17.00;;;-0.50;99.90;;;;;;4956062;28;20121;-83
2021/01/17 06:02:24;;;;;;;28.60;16.55;;;-0.70;99.90;;;;;;4954774;29;20063;-83
2021/01/17 06:04:53;;;;;;;32.13;17.30;;;-0.60;99.90;;;;;;4954662;28;20066;-82
2021/01/17 06:07:27;;;;;;;28.70;17.48;;;-0.50;99.90;;;;;;4954668;29;20562;-82
2021/01/17 06:10:01;;;;;;;33.50;18.35;;;-0.60;99.90;;;;;;4955961;28;20038;-83
2021/01/17 06:12:35;;;;;;;28.80;17.38;;;-0.70;99.90;;;;;;4954569;29;20031;-83
2021/01/17 06:15:09;;;;;;;30.95;18.30;;;-0.70;99.90;;;;;;4956168;28;20027;-82
2021/01/17 06:17:37;;;;;;;32.38;18.00;;;-0.70;99.90;;;;;;4955336;29;20464;-83
2021/01/17 06:20:10;;;;;;;29.88;17.50;;;-0.70;99.90;;;;;;4955787;28;20419;-82
2021/01/17 06:22:37;;;;;;;31.80;17.92;;;-0.60;99.90;;;;;;4939391;29;20464;-83
2021/01/17 06:25:06;;;;;;;30.45;17.63;;;-0.50;99.90;;;;;;4954401;29;20090;-83
2021/01/17 06:27:32;;;;;;;30.30;17.38;;;-0.60;99.90;;;;;;4955927;28;20035;-82
2021/01/17 06:29:59;;;;;;;32.13;18.98;;;-0.50;99.90;;;;;;4954357;29;20082;-83
2021/01/17 06:32:29;;;;;;;32.03;18.48;;;-0.40;99.90;;;;;;4955537;28;20031;-82
2021/01/17 06:34:57;;;;;;;36.60;19.90;;;-0.60;99.90;;;;;;4954332;29;20023;-82
2021/01/17 06:37:25;;;;;;;29.23;17.83;;;-0.70;99.90;;;;;;4955458;28;20440;-82
2021/01/17 06:39:53;;;;;;;37.85;21.10;;;-0.70;99.90;;;;;;4954245;29;20019;-82
2021/01/17 06:42:20;;;;;;;33.80;19.55;;;-0.70;99.90;;;;;;4954236;28;20023;-82
2021/01/17 06:44:48;;;;;;;30.30;18.50;;;-0.70;99.90;;;;;;4955452;28;20406;-82
2021/01/17 06:47:27;;;;;;;33.63;19.50;;;-0.70;99.90;;;;;;4954135;29;20098;-82
2021/01/17 06:49:55;;;;;;;35.75;19.65;;;-0.60;99.90;;;;;;4954174;29;20442;-82
2021/01/17 06:52:21;;;;;;;38.42;21.95;;;-0.50;99.90;;;;;;4954066;28;20027;-82
2021/01/17 06:54:52;;;;;;;41.35;23.00;;;-0.60;99.90;;;;;;4954154;29;20059;-82
2021/01/17 06:57:20;;;;;;;32.30;19.08;;;-0.70;99.90;;;;;;4955388;28;20078;-83
2021/01/17 06:59:50;;;;;;;35.80;20.42;;;-0.60;99.90;;;;;;4955346;28;20062;-82
2021/01/17 07:02:25;;;;;;;35.30;20.63;;;-0.50;99.90;;;;;;4955362;28;20024;-83
2021/01/17 07:04:53;;;;;;;30.48;17.77;;;-0.60;99.90;;;;;;4955292;29;20024;-83
2021/01/17 07:07:50;;;;;;;30.60;17.58;;;-0.30;99.90;;;;;;4953980;29;20046;-83
2021/01/17 07:10:20;;;;;;;29.00;16.85;;;-0.20;99.90;;;;;;4954065;29;20031;-83
2021/01/17 07:12:56;;;;;;;32.10;17.17;;;0.00;99.90;;;;;;4955481;28;20031;-83
2021/01/17 07:15:27;;;;;;;27.65;17.08;;;0.10;99.90;;;;;;4954674;28;20163;-83
2021/01/17 07:18:01;;;;;;;28.27;16.77;;;0.10;99.90;;;;;;4959041;28;20032;-82
2021/01/17 07:20:29;;;;;;;27.63;16.90;;;0.20;99.90;;;;;;4959044;28;20034;-82
2021/01/17 07:22:59;;;;;;;28.02;17.27;;;0.20;99.90;;;;;;4957621;29;20038;-82
2021/01/17 07:25:26;;;;;;;27.60;16.35;;;0.20;99.90;;;;;;4958850;28;20027;-82
2021/01/17 07:27:52;;;;;;;30.88;17.23;;;0.20;99.90;;;;;;4957557;29;20451;-82
2021/01/17 07:30:45;;;;;;;31.65;17.35;;;0.20;99.90;;;;;;4958727;29;20054;-82
2021/01/17 07:33:16;;;;;;;30.45;17.13;;;0.30;99.90;;;;;;4953337;29;20035;-82
2021/01/17 07:35:47;;;;;;;28.85;17.27;;;0.20;99.90;;;;;;4957487;29;20078;-82
2021/01/17 07:38:21;;;;;;;28.48;16.50;;;0.30;99.90;;;;;;4957333;28;20368;-82
2021/01/17 07:40:54;;;;;;;29.98;17.42;;;0.20;99.90;;;;;;4958578;28;20387;-82
2021/01/17 07:43:23;;;;;;;32.38;17.90;;;0.30;99.90;;;;;;4957116;29;20062;-82
2021/01/17 07:45:49;;;;;;;34.05;19.63;;;0.30;99.90;;;;;;4957258;29;20482;-82
2021/01/17 07:48:16;;;;;;;31.50;17.25;;;0.20;99.90;;;;;;4958517;28;20048;-82
2021/01/17 07:50:44;;;;;;;29.13;17.88;;;0.40;99.90;;;;;;4958465;28;20114;-83
2021/01/17 07:53:41;;;;;;;31.60;17.70;;;0.30;99.90;;;;;;4956972;29;20042;-83
2021/01/17 07:56:27;;;;;;;32.25;18.45;;;0.40;99.90;;;;;;4930647;29;20038;-83
2021/01/17 07:58:58;;;;;;;31.13;18.02;;;0.30;99.90;;;;;;4956946;29;20034;-83
2021/01/17 08:01:34;;;;;;;31.48;18.10;;;0.30;99.90;;;;;;4957006;29;20027;-83
2021/01/17 08:04:05;;;;;;;32.10;18.13;;;0.20;99.90;;;;;;4958131;28;20033;-83
2021/01/17 08:06:37;;;;;;;34.15;19.05;;;0.20;99.90;;;;;;4956887;29;20019;-83
2021/01/17 08:09:13;;;;;;;31.13;18.35;;;0.30;99.90;;;;;;4958029;29;20102;-82
2021/01/17 08:11:56;;;;;;;29.02;17.40;;;0.30;99.90;;;;;;4958262;28;20031;-83
2021/01/17 08:14:30;;;;;;;31.45;18.55;;;0.40;99.90;;;;;;4957930;28;20022;-82
2021/01/17 08:17:10;;;;;;;32.35;19.17;;;0.50;99.90;;;;;;4957914;28;20483;-82
2021/01/17 08:19:54;;;;;;;30.35;17.55;;;0.50;99.90;;;;;;4956597;29;20074;-82
2021/01/17 08:22:22;;;;;;;30.65;17.70;;;0.40;99.90;;;;;;4957827;29;20034;-82
2021/01/17 08:24:49;;;;;;;34.50;19.77;;;0.50;99.90;;;;;;4957697;29;20063;-82
2021/01/17 08:27:30;;;;;;;36.38;19.98;;;0.40;99.90;;;;;;4955381;28;20126;-82
2021/01/17 08:30:08;;;;;;;32.25;18.17;;;0.40;99.90;;;;;;4956431;29;20043;-82
2021/01/17 08:32:48;;;;;;;31.35;18.88;;;0.50;99.90;;;;;;4958162;28;20031;-82
2021/01/17 08:35:13;;;;;;;35.75;19.77;;;0.40;99.90;;;;;;4956340;29;20106;-82
2021/01/17 08:37:44;;;;;;;28.63;19.02;;;0.50;99.90;;;;;;4956158;28;20123;-81
2021/01/17 08:40:14;;;;;;;31.15;18.63;;;0.50;99.90;;;;;;4957763;28;20078;-82
2021/01/17 08:42:49;;;;;;;30.80;18.95;;;0.60;99.90;;;;;;4957798;28;20034;-81
2021/01/17 08:45:21;;;;;;;35.50;21.10;;;0.60;99.90;;;;;;4956182;29;20424;-81
2021/01/17 08:48:01;;;;;;;31.67;18.08;;;0.60;99.90;;;;;;4957360;29;20058;-82
2021/01/17 08:50:37;;;;;;;34.22;19.88;;;0.60;99.90;;;;;;4956093;29;20395;-82
2021/01/17 08:53:14;;;;;;;30.65;18.85;;;0.70;99.90;;;;;;4955969;29;20046;-81
2021/01/17 08:55:47;;;;;;;39.33;20.52;;;0.60;99.90;;;;;;4957496;28;20039;-81
2021/01/17 08:58:27;;;;;;;35.75;21.38;;;0.60;99.90;;;;;;4955969;29;20074;-81
2021/01/17 09:00:56;;;;;;;35.63;20.90;;;0.60;99.90;;;;;;4955852;29;20474;-81
2021/01/17 09:03:26;;;;;;;37.72;22.13;;;0.70;99.90;;;;;;4955847;29;20034;-81
2021/01/17 09:06:00;;;;;;;34.88;20.00;;;0.70;99.90;;;;;;4955812;29;20027;-81
2021/01/17 09:08:27;;;;;;;46.70;25.50;;;0.70;99.90;;;;;;4955743;29;20026;-81
2021/01/17 09:10:53;;;;;;;35.72;20.77;;;0.70;99.90;;;;;;4956965;28;20372;-81
2021/01/17 09:13:25;;;;;;;36.95;20.45;;;0.50;99.90;;;;;;4955552;29;20031;-81
2021/01/17 09:15:54;;;;;;;36.90;21.80;;;0.50;99.90;;;;;;4957205;28;20015;-81
2021/01/17 09:18:28;;;;;;;47.58;30.15;;;0.50;99.90;;;;;;4955555;29;20117;-81
2021/01/17 09:20:55;;;;;;;38.45;20.60;;;0.50;99.90;;;;;;4955556;29;20043;-81
2021/01/17 09:23:22;;;;;;;39.97;21.65;;;0.50;99.90;;;;;;4955456;29;20035;-81
2021/01/17 09:25:54;;;;;;;36.47;20.40;;;0.50;99.90;;;;;;4956680;28;20431;-81
2021/01/17 09:28:21;;;;;;;35.63;20.55;;;0.50;99.90;;;;;;4955412;29;20038;-81
2021/01/17 09:30:50;;;;;;;37.70;23.10;;;0.50;99.90;;;;;;4956516;29;20038;-81
2021/01/17 09:33:18;;;;;;;37.20;21.40;;;0.50;99.90;;;;;;4955218;29;20035;-80
2021/01/17 09:35:45;;;;;;;41.13;24.13;;;0.40;99.90;;;;;;4955276;29;20387;-81
2021/01/17 09:38:19;;;;;;;39.53;24.40;;;0.50;99.90;;;;;;4956502;28;20032;-81
2021/01/17 09:40:51;;;;;;;38.83;22.23;;;0.60;99.90;;;;;;4956467;28;20526;-81
2021/01/17 09:43:18;;;;;;;38.47;23.27;;;1.00;99.90;;;;;;4956375;28;20059;-81
2021/01/17 09:45:57;;;;;;;38.28;23.13;;;0.80;99.90;;;;;;4955062;29;20038;-81
2021/01/17 09:48:25;;;;;;;37.83;20.85;;;0.60;99.90;;;;;;4956585;28;20023;-81
2021/01/17 09:50:51;;;;;;;35.90;22.20;;;0.70;99.90;;;;;;4955020;29;20031;-81
2021/01/17 09:53:18;;;;;;;37.95;21.67;;;0.90;99.90;;;;;;4938881;29;20422;-81
2021/01/17 09:55:46;;;;;;;41.40;25.67;;;0.90;99.90;;;;;;4956461;28;20372;-81
2021/01/17 09:58:14;;;;;;;119.70;71.10;;;0.90;99.90;;;;;;4956949;28;20027;-81
2021/01/17 10:00:41;;;;;;;40.13;22.33;;;1.00;99.90;;;;;;4954787;29;20031;-81
2021/01/17 10:03:15;;;;;;;40.53;23.55;;;1.00;99.90;;;;;;4954693;29;20027;-81
2021/01/17 10:05:42;;;;;;;35.58;19.50;;;1.10;99.90;;;;;;4954660;29;20487;-81
2021/01/17 10:08:15;;;;;;;36.58;20.25;;;1.20;99.90;;;;;;4954597;29;20031;-81
2021/01/17 10:10:45;;;;;;;35.78;21.83;;;1.40;99.90;;;;;;4955978;28;20109;-81
2021/01/17 10:13:11;;;;;;;41.83;25.38;;;1.30;99.90;;;;;;4955732;28;20451;-81
2021/01/17 10:15:40;;;;;;;31.13;20.10;;;1.30;99.90;;;;;;4956074;29;20074;-81
2021/01/17 10:18:06;;;;;;;38.65;24.30;;;1.30;99.90;;;;;;4954504;29;20122;-81
2021/01/17 10:20:38;;;;;;;28.73;18.85;;;1.40;99.90;;;;;;4956469;28;20023;-82
2021/01/17 10:23:09;;;;;;;40.22;22.75;;;1.50;99.90;;;;;;4955778;28;20471;-81
2021/01/17 10:25:36;;;;;;;38.67;23.05;;;1.60;99.90;;;;;;4954390;28;20480;-82
2021/01/17 10:28:10;;;;;;;29.27;16.88;;;1.80;99.90;;;;;;4955897;28;20046;-82
2021/01/17 10:30:38;;;;;;;32.38;19.10;;;1.70;99.90;;;;;;4955909;28;20427;-82
2021/01/17 10:33:12;;;;;;;30.30;18.55;;;1.80;99.90;;;;;;4955763;28;20043;-82
2021/01/17 10:35:48;;;;;;;29.83;18.02;;;2.00;99.90;;;;;;4955635;28;20023;-82
2021/01/17 10:38:15;;;;;;;32.72;18.52;;;2.00;99.90;;;;;;4955484;28;20079;-81
2021/01/17 10:40:42;;;;;;;28.27;16.65;;;1.90;99.90;;;;;;4955452;28;20027;-82
2021/01/17 10:43:24;;;;;;;31.02;18.70;;;1.90;99.90;;;;;;4954005;29;20048;-82
2021/01/17 10:46:21;;;;;;;42.78;24.83;;;2.00;99.90;;;;;;4954280;29;20547;-82
2021/01/17 10:48:57;;;;;;;32.50;21.48;;;2.00;99.90;;;;;;4955124;29;20105;-81
2021/01/17 10:51:33;;;;;;;45.85;25.92;;;1.90;99.90;;;;;;4955064;28;20509;-82
2021/01/17 10:54:02;;;;;;;31.27;19.27;;;1.90;99.90;;;;;;4955430;28;20115;-82
2021/01/17 10:56:29;;;;;;;33.92;21.40;;;1.80;99.90;;;;;;4955353;28;20352;-82
2021/01/17 10:58:57;;;;;;;29.63;18.63;;;1.80;99.90;;;;;;4953996;29;20081;-82
2021/01/17 11:01:35;;;;;;;33.55;20.15;;;1.80;99.90;;;;;;4954031;29;20391;-82
2021/01/17 11:04:00;;;;;;;29.20;18.67;;;1.70;99.90;;;;;;4955303;28;20530;-83
2021/01/17 11:06:30;;;;;;;24.95;15.82;;;1.80;99.90;;;;;;4953969;29;20159;-83
2021/01/17 11:08:57;;;;;;;29.52;17.95;;;2.10;99.90;;;;;;4955228;28;20114;-83
2021/01/17 11:11:29;;;;;;;31.20;18.70;;;2.30;99.90;;;;;;4953970;29;20031;-82
2021/01/17 11:14:05;;;;;;;29.85;18.60;;;2.10;99.90;;;;;;4955282;28;20026;-82
2021/01/17 11:16:50;;;;;;;29.50;18.10;;;1.90;99.90;;;;;;4953884;29;20114;-82
2021/01/17 11:19:16;;;;;;;27.05;17.33;;;1.90;99.90;;;;;;4955288;28;20360;-82
2021/01/17 11:21:43;;;;;;;28.45;16.17;;;1.90;99.90;;;;;;4954439;29;20035;-82
2021/01/17 11:24:09;;;;;;;27.05;16.35;;;2.10;99.90;;;;;;4955099;28;20031;-83
2021/01/17 11:26:38;;;;;;;25.02;16.52;;;2.20;99.90;;;;;;4955105;28;20024;-82
2021/01/17 11:29:06;;;;;;;29.65;17.17;;;2.10;99.90;;;;;;4955071;28;20167;-83
2021/01/17 11:31:33;;;;;;;31.33;18.23;;;1.90;99.90;;;;;;4953745;29;20023;-83
2021/01/17 11:33:59;;;;;;;42.13;27.27;;;1.80;99.90;;;;;;4953671;28;20050;-83
2021/01/17 11:36:27;;;;;;;27.13;17.13;;;1.80;99.90;;;;;;4953693;28;20027;-83
2021/01/17 11:38:58;;;;;;;31.80;19.00;;;1.70;99.90;;;;;;4955183;28;20415;-83
2021/01/17 11:41:32;;;;;;;30.48;17.88;;;1.70;99.90;;;;;;4954983;28;20075;-83
2021/01/17 11:44:13;;;;;;;34.35;20.48;;;1.80;99.90;;;;;;4953516;29;20055;-83
2021/01/17 11:46:40;;;;;;;37.25;21.58;;;1.80;99.90;;;;;;4954894;28;20475;-83
2021/01/17 11:49:06;;;;;;;36.78;21.13;;;1.90;99.90;;;;;;4953589;29;20031;-83
2021/01/17 11:51:33;;;;;;;43.28;21.63;;;1.90;99.90;;;;;;4954785;28;20479;-83
2021/01/17 11:54:12;;;;;;;38.28;21.73;;;1.90;99.90;;;;;;4954775;28;20046;-83
2021/01/17 11:56:38;;;;;;;45.03;25.80;;;1.80;99.90;;;;;;4954876;28;20387;-83
2021/01/17 11:59:04;;;;;;;31.98;18.08;;;1.80;99.90;;;;;;4953530;29;20051;-83
2021/01/17 12:01:30;;;;;;;29.60;18.52;;;1.90;99.90;;;;;;4954384;28;20388;-83
2021/01/17 12:04:12;;;;;;;27.02;14.93;;;1.90;99.90;;;;;;4958156;28;20027;-83
2021/01/17 12:06:38;;;;;;;34.67;20.85;;;2.00;99.90;;;;;;4958186;28;20034;-83
2021/01/17 12:09:07;;;;;;;54.83;29.23;;;2.10;99.90;;;;;;4957952;29;20110;-83
2021/01/17 12:11:45;;;;;;;29.88;17.90;;;2.10;99.90;;;;;;4958294;28;20023;-83
2021/01/17 12:14:18;;;;;;;53.97;27.98;;;2.20;99.90;;;;;;4956734;29;20037;-83
2021/01/17 12:16:48;;;;;;;36.92;20.08;;;2.30;99.90;;;;;;4956693;29;20019;-84
2021/01/17 12:19:16;;;;;;;44.65;22.98;;;2.30;99.90;;;;;;4957917;28;20061;-84
2021/01/17 12:21:42;;;;;;;80.72;38.22;;;2.30;99.90;;;;;;4956494;28;20102;-85
2021/01/17 12:24:13;;;;;;;35.88;20.60;;;2.30;99.90;;;;;;4957762;28;20475;-84
2021/01/17 12:26:40;;;;;;;32.88;18.08;;;2.30;99.90;;;;;;4956553;29;20042;-84
2021/01/17 12:29:08;;;;;;;41.22;20.10;;;2.30;99.90;;;;;;4956410;29;20024;-84
2021/01/17 12:31:34;;;;;;;24.83;16.38;;;2.30;99.90;;;;;;4956346;29;20110;-84
2021/01/17 12:34:00;;;;;;;25.77;16.48;;;2.20;99.90;;;;;;4956314;29;20079;-84
2021/01/17 12:36:28;;;;;;;28.52;17.77;;;2.20;99.90;;;;;;4957501;28;20027;-84
2021/01/17 12:38:55;;;;;;;28.48;16.98;;;2.10;99.90;;;;;;4956326;29;20035;-84
2021/01/17 12:41:26;;;;;;;29.45;17.30;;;2.00;99.90;;;;;;4957477;28;20031;-85
2021/01/17 12:43:52;;;;;;;27.10;17.02;;;2.00;99.90;;;;;;4956672;28;20051;-85